createdAt,value
2018-06-03T01:19:59.435Z,99.90
2018-06-03T01:22:58.026Z,99.90
2018-06-03T01:25:26.456Z,99.90
2018-06-03T01:27:54.809Z,99.90
2018-06-03T01:30:23.225Z,99.90
2018-06-03T01:32:51.636Z,99.90
2018-06-03T01:35:20.592Z,99.90
2018-06-03T01:37:48.956Z,99.90
2018-06-03T01:40:17.382Z,99.90
2018-06-03T01:42:45.776Z,99.90
2018-06-03T01:45:14.167Z,99.90
2018-06-03T01:47:42.574Z,99.90
2018-06-03T01:50:10.954Z,99.90
2018-06-03T01:52:39.364Z,99.90
2018-06-03T01:55:07.791Z,99.90
2018-06-03T01:57:36.117Z,99.90
2018-06-03T02:00:04.611Z,99.90
2018-06-03T02:02:32.963Z,99.90
2018-06-03T02:05:01.474Z,99.90
2018-06-03T02:07:30.937Z,99.90
2018-06-03T02:09:59.334Z,99.90
2018-06-03T02:12:27.715Z,99.90
2018-06-03T02:14:56.396Z,99.90
2018-06-03T02:17:24.912Z,99.90
2018-06-03T02:19:53.347Z,99.90
2018-06-03T02:22:21.746Z,99.90
2018-06-03T02:24:50.296Z,99.90
2018-06-03T02:27:18.647Z,99.90
2018-06-03T02:29:47.054Z,99.90
2018-06-03T02:32:15.412Z,99.90
2018-06-03T02:34:43.881Z,99.90
2018-06-03T02:37:12.204Z,99.90
2018-06-03T02:39:40.670Z,99.90
2018-06-03T02:42:09.185Z,99.90
2018-06-03T02:44:38.262Z,99.90
2018-06-03T02:47:07.352Z,99.90
2018-06-03T02:49:35.650Z,99.90
2018-06-03T02:52:04.098Z,99.90
2018-06-03T02:54:32.471Z,99.90
2018-06-03T02:57:00.999Z,99.90
2018-06-03T02:59:29.390Z,99.90
2018-06-03T03:01:57.801Z,99.90
2018-06-03T03:04:26.215Z,99.90
2018-06-03T03:06:54.628Z,99.90
2018-06-03T03:09:23.012Z,99.90
2018-06-03T03:11:51.437Z,99.90
2018-06-03T03:14:19.871Z,99.90
2018-06-03T03:16:48.224Z,99.90
2018-06-03T03:19:16.687Z,99.90
2018-06-03T03:21:45.031Z,99.90
2018-06-03T03:24:13.387Z,99.90
2018-06-03T03:26:41.934Z,99.90
2018-06-03T03:29:10.396Z,99.90
2018-06-03T03:31:39.483Z,99.90
2018-06-03T03:34:07.839Z,99.90
2018-06-03T03:36:36.233Z,99.90
2018-06-03T03:39:05.837Z,99.90
2018-06-03T03:41:34.195Z,99.90
2018-06-03T03:44:02.604Z,99.90
2018-06-03T03:46:31.129Z,99.90
2018-06-03T03:48:59.502Z,99.90
2018-06-03T03:51:28.188Z,99.90
2018-06-03T03:53:56.718Z,99.90
2018-06-03T03:56:25.181Z,99.90
2018-06-03T03:58:53.619Z,99.90
2018-06-03T04:01:22.073Z,99.90
2018-06-03T04:03:50.432Z,99.90
2018-06-03T04:06:18.884Z,99.90
2018-06-03T04:08:47.349Z,99.90
2018-06-03T04:11:15.700Z,99.90
2018-06-03T04:13:44.190Z,99.90
2018-06-03T04:16:12.546Z,99.90
2018-06-03T04:18:40.896Z,99.90
2018-06-03T04:21:09.354Z,99.90
2018-06-03T04:23:37.819Z,99.90
2018-06-03T04:26:06.235Z,99.90
2018-06-03T04:28:34.705Z,99.90
2018-06-03T04:31:03.190Z,99.90
2018-06-03T04:33:31.588Z,99.90
2018-06-03T04:35:59.923Z,99.90
2018-06-03T04:38:28.381Z,99.90
2018-06-03T04:40:56.824Z,99.90
2018-06-03T04:43:25.230Z,99.90
2018-06-03T04:45:53.714Z,99.90
2018-06-03T04:48:22.165Z,99.90
2018-06-03T04:50:50.660Z,99.90
2018-06-03T04:53:19.119Z,99.90
2018-06-03T04:55:47.466Z,99.90
2018-06-03T04:58:15.903Z,99.90
2018-06-03T05:00:44.316Z,99.90
2018-06-03T05:03:12.850Z,99.90
2018-06-03T05:05:41.272Z,99.90
2018-06-03T05:08:09.749Z,99.90
2018-06-03T05:10:38.155Z,99.90
2018-06-03T05:13:06.534Z,99.90
2018-06-03T05:15:34.937Z,99.90
2018-06-03T05:18:03.301Z,99.90
2018-06-03T05:20:31.637Z,99.90
2018-06-03T05:23:00.070Z,99.90
2018-06-03T05:25:28.481Z,99.90
2018-06-03T05:27:57.047Z,99.90
2018-06-03T05:30:25.476Z,99.90
2018-06-03T05:32:53.862Z,99.90
2018-06-03T05:35:22.417Z,99.90
2018-06-03T05:37:50.869Z,99.90
2018-06-03T05:40:19.198Z,99.90
2018-06-03T05:42:47.627Z,99.90
2018-06-03T05:45:16.051Z,99.90
2018-06-03T05:47:44.442Z,99.90
2018-06-03T05:50:12.891Z,99.90
2018-06-03T05:52:41.476Z,99.90
2018-06-03T05:55:09.856Z,99.90
2018-06-03T05:57:38.256Z,99.90
2018-06-03T06:00:08.068Z,99.90
2018-06-03T06:02:36.505Z,99.90
2018-06-03T06:05:04.952Z,99.90
2018-06-03T06:07:33.511Z,99.90
2018-06-03T06:10:01.902Z,99.90
2018-06-03T06:12:30.229Z,99.90
2018-06-03T06:14:58.750Z,99.90
2018-06-03T06:17:27.126Z,99.90
2018-06-03T06:19:55.694Z,99.90
2018-06-03T06:22:24.158Z,99.90
2018-06-03T06:24:52.621Z,99.90
2018-06-03T06:27:21.077Z,99.90
2018-06-03T06:29:49.530Z,99.90
2018-06-03T06:32:18.019Z,99.90
2018-06-03T06:34:46.663Z,99.90
2018-06-03T06:37:15.221Z,99.90
2018-06-03T06:39:43.965Z,99.90
2018-06-03T06:42:12.479Z,99.90
2018-06-03T06:44:40.952Z,99.90
2018-06-03T06:47:09.412Z,99.90
2018-06-03T06:49:37.921Z,99.90
2018-06-03T06:52:07.160Z,99.90
2018-06-03T06:54:36.243Z,99.90
2018-06-03T06:57:04.965Z,99.90
2018-06-03T06:59:33.446Z,99.90
2018-06-03T07:02:03.692Z,99.90
2018-06-03T07:04:32.133Z,99.90
2018-06-03T07:07:00.674Z,99.90
2018-06-03T07:09:29.775Z,99.90
2018-06-03T07:11:58.625Z,99.90
2018-06-03T07:14:28.431Z,99.90
2018-06-03T07:16:56.980Z,99.90
2018-06-03T07:19:25.743Z,99.90
2018-06-03T07:21:54.219Z,99.90
2018-06-03T07:24:22.667Z,99.90
2018-06-03T07:26:51.130Z,99.90
2018-06-03T07:29:19.673Z,99.90
2018-06-03T07:31:48.815Z,99.90
2018-06-03T07:34:17.301Z,99.90
2018-06-03T07:36:45.922Z,99.90
2018-06-03T07:39:14.474Z,99.90
2018-06-03T07:41:43.143Z,99.90
2018-06-03T07:44:11.736Z,99.90
2018-06-03T07:46:40.302Z,99.90
2018-06-03T07:51:37.074Z,99.90
2018-06-03T07:54:05.685Z,99.90
2018-06-03T07:56:34.162Z,99.90
2018-06-03T07:59:02.597Z,99.90
2018-06-03T08:01:31.194Z,99.90
2018-06-03T08:03:59.714Z,99.90
2018-06-03T08:06:28.151Z,99.90
2018-06-03T08:08:56.582Z,99.90
2018-06-03T08:11:25.207Z,99.90
2018-06-03T08:13:53.620Z,99.90
2018-06-03T08:16:22.160Z,99.90
2018-06-03T08:18:50.630Z,99.90
2018-06-03T08:21:19.051Z,99.90
2018-06-03T08:23:47.512Z,99.90
2018-06-03T08:26:15.918Z,99.90
2018-06-03T08:28:44.393Z,99.90
2018-06-03T08:31:13.430Z,99.90
2018-06-03T08:33:41.892Z,99.90
2018-06-03T08:36:10.274Z,99.90
2018-06-03T08:38:38.795Z,99.90
2018-06-03T08:41:07.276Z,99.90
2018-06-03T08:43:36.141Z,99.90
2018-06-03T08:46:04.587Z,99.90
2018-06-03T08:48:33.100Z,99.90
2018-06-03T08:51:01.672Z,99.90
2018-06-03T08:53:30.149Z,99.90
2018-06-03T08:55:58.561Z,99.90
2018-06-03T08:58:27.034Z,99.90
2018-06-03T09:00:55.612Z,99.20
2018-06-03T09:03:24.292Z,98.40
2018-06-03T09:05:52.743Z,98.00
2018-06-03T09:08:21.259Z,98.10
2018-06-03T09:10:50.780Z,98.50
2018-06-03T09:13:19.271Z,98.20
2018-06-03T09:15:47.645Z,98.30
2018-06-03T09:18:16.133Z,96.90
2018-06-03T09:20:44.804Z,97.30
2018-06-03T09:23:13.361Z,95.80
2018-06-03T09:25:42.011Z,96.60
2018-06-03T09:28:10.673Z,95.50
2018-06-03T09:30:39.366Z,95.50
2018-06-03T09:33:08.014Z,95.50
2018-06-03T09:35:36.749Z,95.20
2018-06-03T09:38:05.379Z,95.20
2018-06-03T09:40:34.643Z,95.10
2018-06-03T09:43:03.747Z,95.90
2018-06-03T09:45:33.403Z,96.00
2018-06-03T09:48:02.899Z,95.60
2018-06-03T09:50:32.435Z,94.40
2018-06-03T09:53:01.872Z,94.90
2018-06-03T09:55:31.025Z,94.50
2018-06-03T09:58:04.054Z,94.60
2018-06-03T10:00:33.872Z,94.00
2018-06-03T10:03:04.125Z,94.30
2018-06-03T10:05:33.869Z,94.60
2018-06-03T10:08:03.072Z,93.80
2018-06-03T10:10:33.805Z,93.40
2018-06-03T10:13:06.532Z,93.90
2018-06-03T10:15:36.349Z,93.50
2018-06-03T10:18:05.990Z,93.70
2018-06-03T10:20:36.657Z,92.60
2018-06-03T10:23:06.022Z,93.60
2018-06-03T10:25:36.397Z,93.40
2018-06-03T10:28:06.710Z,93.00
2018-06-03T10:33:05.619Z,92.10
2018-06-03T10:35:35.331Z,92.00
2018-06-03T10:38:04.636Z,93.00
2018-06-03T10:40:33.802Z,92.30
2018-06-03T10:43:04.488Z,92.30
2018-06-03T10:45:35.883Z,91.50
2018-06-03T10:48:05.157Z,91.90
2018-06-03T10:50:34.406Z,90.80
2018-06-03T10:53:03.944Z,91.50
2018-06-03T10:55:33.801Z,91.60
2018-06-03T10:58:06.893Z,91.70
2018-06-03T11:00:36.370Z,91.60
2018-06-03T11:03:05.200Z,91.50
2018-06-03T11:05:34.248Z,90.70
2018-06-03T11:08:03.463Z,91.40
2018-06-03T11:10:32.804Z,91.30
2018-06-03T11:13:01.868Z,92.30
2018-06-03T11:15:31.731Z,91.80
2018-06-03T11:18:03.361Z,93.20
2018-06-03T11:20:33.846Z,93.20
2018-06-03T11:23:04.790Z,92.10
2018-06-03T11:25:36.844Z,92.30
2018-06-03T11:28:08.630Z,92.70
2018-06-03T11:30:39.067Z,92.20
2018-06-03T11:33:10.270Z,93.10
2018-06-03T11:35:40.449Z,92.00
2018-06-03T11:38:10.032Z,91.70
2018-06-03T11:40:41.540Z,91.90
2018-06-03T11:43:11.620Z,91.70
2018-06-03T11:45:40.742Z,91.20
2018-06-03T11:48:10.646Z,90.60
2018-06-03T11:50:41.293Z,91.90
2018-06-03T11:53:11.186Z,91.10
2018-06-03T11:55:43.780Z,91.70
2018-06-03T11:58:57.610Z,92.00
2018-06-03T12:01:28.736Z,91.60
2018-06-03T12:03:58.034Z,90.50
2018-06-03T12:06:27.439Z,91.10
2018-06-03T12:08:58.698Z,91.70
2018-06-03T12:11:28.300Z,91.60
2018-06-03T12:14:00.553Z,92.90
2018-06-03T12:16:29.233Z,94.10
2018-06-03T12:18:58.521Z,94.60
2018-06-03T12:21:29.017Z,94.00
2018-06-03T12:23:57.995Z,94.80
2018-06-03T12:26:26.740Z,95.00
2018-06-03T12:28:56.407Z,96.10
2018-06-03T12:31:25.789Z,93.20
2018-06-03T12:33:54.377Z,94.30
2018-06-03T12:36:24.633Z,96.80
2018-06-03T12:38:54.366Z,96.30
2018-06-03T12:41:23.030Z,96.00
2018-06-03T12:43:57.517Z,95.10
2018-06-03T12:46:26.532Z,95.40
2018-06-03T12:48:55.494Z,96.10
2018-06-03T12:51:24.561Z,95.90
2018-06-03T12:56:22.991Z,94.50
2018-06-03T12:58:52.659Z,95.00
2018-06-03T13:01:21.165Z,93.30
2018-06-03T13:03:49.790Z,94.60
2018-06-03T13:06:22.378Z,93.60
2018-06-03T13:08:55.583Z,92.60
2018-06-03T13:11:25.025Z,90.90
2018-06-03T13:13:56.277Z,90.20
2018-06-03T13:30:16.458Z,85.70
2018-06-03T13:32:44.821Z,87.30
2018-06-03T13:35:13.196Z,87.40
2018-06-03T13:37:41.587Z,88.90
2018-06-03T13:40:10.080Z,84.50
2018-06-03T13:42:38.831Z,82.20
2018-06-03T13:45:07.444Z,82.20
2018-06-03T13:47:35.882Z,82.30
2018-06-03T13:50:04.548Z,80.70
2018-06-03T13:52:32.991Z,82.20
2018-06-03T13:55:01.441Z,78.80
2018-06-03T13:57:29.928Z,79.10
2018-06-03T13:59:58.311Z,81.70
2018-06-03T14:04:54.677Z,77.20
2018-06-03T14:07:23.147Z,81.20
2018-06-03T14:09:51.585Z,84.70
2018-06-03T14:12:19.952Z,81.60
2018-06-03T14:14:48.405Z,83.90
2018-06-03T14:17:16.737Z,87.10
2018-06-03T14:19:45.280Z,89.50
2018-06-03T14:22:13.594Z,88.80
2018-06-03T14:24:41.943Z,90.60
2018-06-03T14:27:10.402Z,87.10
2018-06-03T14:29:38.696Z,90.20
2018-06-03T14:32:07.106Z,90.10
2018-06-03T14:34:35.472Z,90.00
2018-06-03T14:37:04.650Z,90.80
2018-06-03T14:39:33.007Z,91.00
2018-06-03T14:42:01.411Z,82.30
2018-06-03T14:44:29.824Z,90.30
2018-06-03T14:46:58.230Z,90.80
2018-06-03T14:49:26.526Z,89.20
2018-06-03T14:51:55.016Z,84.60
2018-06-03T14:54:23.500Z,85.20
2018-06-03T14:56:51.972Z,84.80
2018-06-03T14:59:20.314Z,78.20
2018-06-03T15:01:48.731Z,82.30
2018-06-03T15:04:17.099Z,84.20
2018-06-03T15:06:45.524Z,82.80
2018-06-03T15:09:13.878Z,78.20
2018-06-03T15:11:42.228Z,76.90
2018-06-03T15:14:10.601Z,84.50
2018-06-03T15:16:38.930Z,84.40
2018-06-03T15:19:07.262Z,85.10
2018-06-03T15:21:35.739Z,87.30
2018-06-03T15:24:04.169Z,91.70
2018-06-03T15:26:32.624Z,95.30
2018-06-03T15:29:00.938Z,97.90
2018-06-03T15:31:29.351Z,99.90
2018-06-03T15:33:57.866Z,99.90
2018-06-03T15:36:27.175Z,99.90
2018-06-03T15:38:55.587Z,99.90
2018-06-03T15:41:24.038Z,99.90
2018-06-03T15:43:52.712Z,99.90
2018-06-03T15:46:21.200Z,99.90
2018-06-03T15:48:49.632Z,99.90
2018-06-03T15:51:18.215Z,99.90
2018-06-03T15:53:46.691Z,99.90
2018-06-03T15:56:15.094Z,99.90
2018-06-03T15:58:43.493Z,99.90
2018-06-03T16:01:11.992Z,99.90
2018-06-03T16:03:40.337Z,99.90
2018-06-03T16:06:08.713Z,99.90
2018-06-03T16:08:37.163Z,99.90
2018-06-03T16:11:05.556Z,99.90
2018-06-03T16:13:34.064Z,99.90
2018-06-03T16:16:02.875Z,99.90
2018-06-03T16:18:31.505Z,99.90
2018-06-03T16:20:59.887Z,99.90
2018-06-03T16:23:28.280Z,99.90
2018-06-03T16:25:56.787Z,99.90
2018-06-03T16:28:25.197Z,99.90
2018-06-03T16:30:53.637Z,99.90
2018-06-03T16:33:22.034Z,99.90
2018-06-03T16:35:50.400Z,99.90
2018-06-03T16:38:18.797Z,99.90
2018-06-03T16:40:47.365Z,99.90
2018-06-03T16:43:16.735Z,99.90
2018-06-03T16:45:45.234Z,99.90
2018-06-03T16:48:13.672Z,99.90
2018-06-03T16:50:42.139Z,99.90
2018-06-03T16:53:10.548Z,99.90
2018-06-03T16:55:39.021Z,99.90
2018-06-03T16:58:07.444Z,99.90
2018-06-03T17:00:35.792Z,99.90
2018-06-03T17:03:04.318Z,99.90
2018-06-03T17:05:32.627Z,99.90
2018-06-03T17:08:01.175Z,99.90
2018-06-03T17:10:29.525Z,99.90
2018-06-03T17:12:57.849Z,99.90
2018-06-03T17:15:26.245Z,99.90
2018-06-03T17:17:54.635Z,99.90
2018-06-03T17:20:23.008Z,99.90
2018-06-03T17:22:51.398Z,99.90
2018-06-03T17:25:19.823Z,99.90
2018-06-03T17:27:48.242Z,99.90
2018-06-03T17:30:16.582Z,99.90
2018-06-03T17:32:44.998Z,99.90
2018-06-03T17:35:13.482Z,99.90
2018-06-03T17:37:41.865Z,99.90
2018-06-03T17:40:10.260Z,99.90
2018-06-03T17:42:38.687Z,99.90
2018-06-03T17:45:07.099Z,99.90
2018-06-03T17:47:35.512Z,99.90
2018-06-03T17:50:03.985Z,99.90
2018-06-03T17:52:32.825Z,99.90
2018-06-03T17:55:01.362Z,99.90
2018-06-03T17:57:29.979Z,99.90
2018-06-03T17:59:58.569Z,99.90
2018-06-03T18:02:27.050Z,99.90
2018-06-03T18:04:55.629Z,99.90
2018-06-03T18:07:24.344Z,99.90
2018-06-03T18:09:52.723Z,99.90
2018-06-03T18:12:21.237Z,99.90
2018-06-03T18:14:49.691Z,99.90
2018-06-03T18:17:18.046Z,99.90
2018-06-03T18:19:46.471Z,99.90
2018-06-03T18:22:14.916Z,99.90
2018-06-03T18:24:43.402Z,99.90
2018-06-03T18:27:11.974Z,99.90
2018-06-03T18:29:40.578Z,99.90
2018-06-03T18:32:09.073Z,99.90
2018-06-03T18:34:37.530Z,99.90
2018-06-03T18:37:06.003Z,99.90
2018-06-03T18:39:34.536Z,99.90
2018-06-03T18:42:03.073Z,99.90
2018-06-03T18:44:31.492Z,99.90
2018-06-03T18:47:00.019Z,99.90
2018-06-03T18:49:28.424Z,99.90
2018-06-03T18:51:57.041Z,99.90
2018-06-03T18:54:25.613Z,99.90
2018-06-03T18:56:54.051Z,99.90
2018-06-03T18:59:22.637Z,99.90
2018-06-03T19:01:51.163Z,99.90
2018-06-03T19:04:19.835Z,99.90
2018-06-03T19:06:48.248Z,99.90
2018-06-03T19:09:16.815Z,99.90
2018-06-03T19:11:45.286Z,99.90
2018-06-03T19:14:13.834Z,99.90
2018-06-03T19:16:42.316Z,99.90
2018-06-03T19:19:10.786Z,99.90
2018-06-03T19:21:39.329Z,99.90
2018-06-03T19:24:08.002Z,99.90
2018-06-03T19:29:05.569Z,99.90
2018-06-03T19:31:33.958Z,99.90
2018-06-03T19:34:02.407Z,99.90
2018-06-03T19:36:30.818Z,99.90
2018-06-03T19:38:59.190Z,99.90
2018-06-03T19:41:27.886Z,99.90
2018-06-03T19:43:56.678Z,99.90
2018-06-03T19:46:25.582Z,99.90
2018-06-03T19:48:54.559Z,99.90
2018-06-03T19:51:23.290Z,99.90
2018-06-03T19:53:51.799Z,99.90
2018-06-03T19:56:20.232Z,99.90
2018-06-03T19:58:48.606Z,99.90
2018-06-03T20:01:16.949Z,99.90
2018-06-03T20:03:45.301Z,99.90
2018-06-03T20:06:13.802Z,99.90
2018-06-03T20:08:42.586Z,99.90
2018-06-03T20:11:10.951Z,99.90
2018-06-03T20:13:39.325Z,99.90
2018-06-03T20:16:07.789Z,99.90
2018-06-03T20:18:36.382Z,99.90
2018-06-03T20:21:04.680Z,99.90
2018-06-03T20:23:33.045Z,99.90
2018-06-03T20:26:01.659Z,99.90
2018-06-03T20:28:30.311Z,99.90
2018-06-03T20:30:58.741Z,99.90
2018-06-03T20:33:27.196Z,99.90
2018-06-03T20:35:55.517Z,99.90
2018-06-03T20:38:23.866Z,99.90
2018-06-03T20:40:52.279Z,99.90
2018-06-03T20:43:20.657Z,99.90
2018-06-03T20:45:49.136Z,99.90
2018-06-03T20:48:17.646Z,99.90
2018-06-03T20:50:46.046Z,99.90
2018-06-03T20:53:14.432Z,99.90
2018-06-03T20:55:42.885Z,99.90
2018-06-03T20:58:11.490Z,99.90
2018-06-03T21:00:39.945Z,99.90
2018-06-03T21:03:08.324Z,99.90
2018-06-03T21:05:36.823Z,99.90
2018-06-03T21:08:05.268Z,99.90
2018-06-03T21:10:33.768Z,99.90
2018-06-03T21:13:02.226Z,99.90
2018-06-03T21:15:31.338Z,99.90
2018-06-03T21:17:59.700Z,99.90
2018-06-03T21:20:28.024Z,99.90
2018-06-03T21:22:56.426Z,99.90
2018-06-03T21:25:24.826Z,99.90
2018-06-03T21:27:53.235Z,99.90
2018-06-03T21:30:21.581Z,99.90
2018-06-03T21:32:49.995Z,99.90
2018-06-03T21:35:18.435Z,99.90
2018-06-03T21:37:46.991Z,99.90
2018-06-03T21:40:15.504Z,99.90
2018-06-03T21:42:44.023Z,99.90
2018-06-03T21:45:12.451Z,99.90
2018-06-03T21:47:40.878Z,99.90
2018-06-03T21:50:09.265Z,99.90
2018-06-03T21:52:37.766Z,99.90
2018-06-03T21:55:06.137Z,99.90
2018-06-03T21:57:34.571Z,99.90
2018-06-03T22:00:03.102Z,99.90
2018-06-03T22:02:31.642Z,99.90
2018-06-03T22:05:00.108Z,99.90
2018-06-03T22:07:28.544Z,99.90
2018-06-03T22:09:56.920Z,99.90
2018-06-03T22:12:25.358Z,99.90
2018-06-03T22:14:53.789Z,99.90
2018-06-03T22:17:22.193Z,99.90
2018-06-03T22:19:50.536Z,99.90
2018-06-03T22:22:19.019Z,99.90
2018-06-03T22:24:47.442Z,99.90
2018-06-03T22:27:15.960Z,99.90
2018-06-03T22:29:44.443Z,99.90
2018-06-03T22:32:12.832Z,99.90
2018-06-03T22:34:41.194Z,99.90
2018-06-03T22:37:09.624Z,99.90
2018-06-03T22:39:37.969Z,99.90
2018-06-03T22:42:06.371Z,99.90
2018-06-03T22:44:34.775Z,99.90
2018-06-03T22:47:03.192Z,99.90
2018-06-03T22:49:31.603Z,99.90
2018-06-03T22:52:00.034Z,99.90
2018-06-03T22:54:28.460Z,99.90
2018-06-03T22:57:35.078Z,99.90
2018-06-03T23:00:03.573Z,99.90
2018-06-03T23:02:32.007Z,99.90
2018-06-03T23:05:00.438Z,99.90
2018-06-03T23:07:28.830Z,99.90
2018-06-03T23:09:57.333Z,99.90
2018-06-03T23:12:25.833Z,99.90
2018-06-03T23:14:54.219Z,99.90
2018-06-03T23:17:22.689Z,99.90
2018-06-03T23:19:51.064Z,99.90
2018-06-03T23:22:19.439Z,99.90
2018-06-03T23:24:47.996Z,99.90
2018-06-03T23:29:44.627Z,99.90
2018-06-03T23:32:13.051Z,99.90
2018-06-03T23:34:41.507Z,99.90
2018-06-03T23:37:09.961Z,99.90
2018-06-03T23:39:38.368Z,99.90
2018-06-03T23:42:06.767Z,99.90
2018-06-03T23:44:35.173Z,99.90
2018-06-03T23:47:03.679Z,99.90
2018-06-03T23:49:32.111Z,99.90
2018-06-03T23:52:00.582Z,99.90
2018-06-03T23:54:29.060Z,99.90
2018-06-03T23:56:57.474Z,99.90
2018-06-03T23:59:25.882Z,99.90
